createdAt,value
2018-06-25T00:00:55.145Z,6.90
2018-06-25T00:01:55.104Z,5.50
2018-06-25T00:02:55.063Z,6.60
2018-06-25T00:03:55.021Z,6.30
2018-06-25T00:04:54.977Z,6.20
2018-06-25T00:05:54.933Z,6.20
2018-06-25T00:06:54.897Z,6.70
2018-06-25T00:07:54.849Z,8.30
2018-06-25T00:08:54.807Z,7.00
2018-06-25T00:09:54.764Z,6.10
2018-06-25T00:10:54.729Z,6.80
2018-06-25T00:11:54.681Z,6.60
2018-06-25T00:12:54.638Z,7.20
2018-06-25T00:13:54.597Z,7.70
2018-06-25T00:14:54.556Z,6.40
2018-06-25T00:15:54.515Z,6.50
2018-06-25T00:16:54.468Z,6.50
2018-06-25T00:17:54.425Z,9.50
2018-06-25T00:18:54.391Z,7.60
2018-06-25T00:19:54.341Z,6.70
2018-06-25T00:20:54.300Z,7.60
2018-06-25T00:21:54.257Z,6.60
2018-06-25T00:22:54.217Z,6.60
2018-06-25T00:23:54.173Z,8.10
2018-06-25T00:24:54.130Z,5.60
2018-06-25T00:25:54.088Z,7.50
2018-06-25T00:26:54.047Z,6.70
2018-06-25T00:27:54.007Z,7.80
2018-06-25T00:28:53.962Z,7.70
2018-06-25T00:29:53.919Z,6.10
2018-06-25T00:30:53.881Z,5.40
2018-06-25T00:31:53.835Z,6.80
2018-06-25T00:32:53.791Z,6.10
2018-06-25T00:33:53.750Z,7.70
2018-06-25T00:34:53.707Z,8.00
2018-06-25T00:35:53.664Z,7.50
2018-06-25T00:36:53.623Z,6.90
2018-06-25T00:37:53.580Z,9.20
2018-06-25T00:38:53.540Z,8.70
2018-06-25T00:39:53.501Z,8.40
2018-06-25T00:40:53.453Z,8.00
2018-06-25T00:41:53.414Z,8.50
2018-06-25T00:42:53.373Z,9.20
2018-06-25T00:43:53.327Z,5.40
2018-06-25T00:44:53.282Z,8.30
2018-06-25T00:45:53.242Z,7.60
2018-06-25T00:46:53.202Z,8.40
2018-06-25T00:47:53.157Z,7.50
2018-06-25T00:48:53.117Z,7.40
2018-06-25T00:49:53.074Z,8.40
2018-06-25T00:50:53.037Z,7.50
2018-06-25T00:51:52.993Z,6.60
2018-06-25T00:52:52.950Z,7.00
2018-06-25T00:53:52.902Z,8.60
2018-06-25T00:54:52.862Z,7.50
2018-06-25T00:55:52.821Z,7.80
2018-06-25T00:56:52.781Z,6.60
2018-06-25T00:57:52.733Z,7.50
2018-06-25T00:58:52.690Z,6.80
2018-06-25T00:59:52.651Z,7.40
2018-06-25T01:00:52.606Z,7.50
2018-06-25T01:01:52.565Z,7.30
2018-06-25T01:02:52.524Z,7.30
2018-06-25T01:03:52.484Z,9.50
2018-06-25T01:04:52.437Z,9.40
2018-06-25T01:05:52.402Z,9.50
2018-06-25T01:06:52.352Z,7.90
2018-06-25T01:07:52.310Z,7.30
2018-06-25T01:08:52.268Z,8.40
2018-06-25T01:09:52.225Z,6.70
2018-06-25T01:10:52.186Z,9.80
2018-06-25T01:11:52.144Z,7.50
2018-06-25T01:12:52.098Z,7.90
2018-06-25T01:13:52.056Z,8.20
2018-06-25T01:14:52.017Z,9.90
2018-06-25T01:15:51.971Z,6.10
2018-06-25T01:16:51.934Z,7.90
2018-06-25T01:17:51.886Z,8.40
2018-06-25T01:18:51.854Z,8.20
2018-06-25T01:19:51.803Z,8.00
2018-06-25T01:20:51.767Z,8.50
2018-06-25T01:21:51.720Z,10.30
2018-06-25T01:22:51.680Z,9.50
2018-06-25T01:23:51.636Z,8.40
2018-06-25T01:24:51.592Z,7.10
2018-06-25T01:25:51.548Z,8.70
2018-06-25T01:26:51.511Z,8.60
2018-06-25T01:27:51.469Z,10.50
2018-06-25T01:28:51.422Z,7.60
2018-06-25T01:29:51.381Z,8.30
2018-06-25T01:30:51.343Z,7.40
2018-06-25T01:31:51.299Z,9.80
2018-06-25T01:32:51.254Z,10.00
2018-06-25T01:33:51.208Z,9.90
2018-06-25T01:34:51.167Z,7.50
2018-06-25T01:35:51.129Z,8.30
2018-06-25T01:36:51.082Z,10.00
2018-06-25T01:37:51.039Z,9.60
2018-06-25T01:38:50.996Z,10.70
2018-06-25T01:39:50.955Z,8.70
2018-06-25T01:40:50.911Z,8.90
2018-06-25T01:41:50.868Z,9.00
2018-06-25T01:42:50.826Z,9.40
2018-06-25T01:43:50.785Z,9.20
2018-06-25T01:44:50.743Z,7.60
2018-06-25T01:45:50.700Z,10.70
2018-06-25T01:46:50.659Z,9.20
2018-06-25T01:47:50.617Z,11.30
2018-06-25T01:48:50.572Z,10.70
2018-06-25T01:49:50.532Z,9.20
2018-06-25T01:50:50.487Z,9.40
2018-06-25T01:51:50.448Z,9.70
2018-06-25T01:52:50.404Z,8.40
2018-06-25T01:53:50.361Z,9.30
2018-06-25T01:54:50.317Z,11.00
2018-06-25T01:55:50.277Z,7.60
2018-06-25T01:56:50.237Z,10.70
2018-06-25T01:57:50.195Z,9.40
2018-06-25T01:58:50.148Z,11.20
2018-06-25T01:59:50.108Z,9.70
2018-06-25T02:00:50.064Z,7.90
2018-06-25T02:01:50.021Z,11.60
2018-06-25T02:02:49.980Z,8.80
2018-06-25T02:03:49.936Z,10.10
2018-06-25T02:04:50.902Z,10.00
2018-06-25T02:05:49.851Z,9.80
2018-06-25T02:06:49.811Z,9.10
2018-06-25T02:07:49.770Z,7.50
2018-06-25T02:08:49.731Z,10.30
2018-06-25T02:09:49.684Z,7.80
2018-06-25T02:10:49.640Z,10.60
2018-06-25T02:11:49.601Z,8.60
2018-06-25T02:12:49.562Z,9.20
2018-06-25T02:13:49.511Z,9.40
2018-06-25T02:14:49.473Z,8.00
2018-06-25T02:15:49.432Z,9.40
2018-06-25T02:16:49.384Z,9.60
2018-06-25T02:17:49.342Z,10.10
2018-06-25T02:18:49.303Z,7.10
2018-06-25T02:19:49.261Z,9.50
2018-06-25T02:20:49.217Z,9.50
2018-06-25T02:21:49.173Z,9.10
2018-06-25T02:22:49.132Z,7.30
2018-06-25T02:23:49.088Z,10.40
2018-06-25T02:24:49.049Z,9.00
2018-06-25T02:25:49.004Z,7.50
2018-06-25T02:26:48.960Z,8.00
2018-06-25T02:27:48.919Z,7.60
2018-06-25T02:28:48.876Z,8.50
2018-06-25T02:29:48.835Z,7.60
2018-06-25T02:30:48.793Z,7.30
2018-06-25T02:31:48.749Z,7.20
2018-06-25T02:32:48.717Z,7.00
2018-06-25T02:33:48.668Z,8.50
2018-06-25T02:34:48.631Z,7.50
2018-06-25T02:35:48.585Z,9.80
2018-06-25T02:36:48.537Z,7.60
2018-06-25T02:37:48.494Z,7.20
2018-06-25T02:38:48.501Z,7.80
2018-06-25T02:39:48.434Z,7.80
2018-06-25T02:40:48.367Z,8.00
2018-06-25T02:41:48.351Z,9.10
2018-06-25T02:42:48.284Z,8.20
2018-06-25T02:43:48.244Z,9.00
2018-06-25T02:44:48.205Z,8.70
2018-06-25T02:45:48.158Z,7.20
2018-06-25T02:46:48.111Z,7.90
2018-06-25T02:47:48.069Z,9.50
2018-06-25T02:48:48.025Z,7.70
2018-06-25T02:49:47.988Z,10.20
2018-06-25T02:50:47.943Z,9.30
2018-06-25T02:51:47.901Z,11.30
2018-06-25T02:52:47.858Z,7.30
2018-06-25T02:53:47.817Z,8.70
2018-06-25T02:54:47.774Z,8.90
2018-06-25T02:55:47.732Z,11.40
2018-06-25T02:56:47.687Z,10.80
2018-06-25T02:57:47.645Z,8.70
2018-06-25T02:58:47.627Z,8.10
2018-06-25T02:59:47.560Z,9.00
2018-06-25T03:00:47.517Z,7.70
2018-06-25T03:01:47.478Z,8.70
2018-06-25T03:02:47.435Z,7.90
2018-06-25T03:03:47.389Z,8.00
2018-06-25T03:04:47.348Z,7.50
2018-06-25T03:05:51.257Z,8.60
2018-06-25T03:06:47.264Z,8.60
2018-06-25T03:07:47.219Z,9.90
2018-06-25T03:08:47.178Z,7.40
2018-06-25T03:09:47.137Z,7.70
2018-06-25T03:10:47.090Z,8.10
2018-06-25T03:11:47.055Z,9.60
2018-06-25T03:12:47.009Z,10.50
2018-06-25T03:13:46.964Z,8.10
2018-06-25T03:14:46.922Z,8.30
2018-06-25T03:15:46.881Z,8.00
2018-06-25T03:16:46.839Z,10.00
2018-06-25T03:17:46.798Z,9.90
2018-06-25T03:18:46.756Z,7.70
2018-06-25T03:19:46.711Z,9.50
2018-06-25T03:20:46.671Z,8.60
2018-06-25T03:21:46.625Z,10.50
2018-06-25T03:22:46.582Z,10.70
2018-06-25T03:23:46.600Z,8.60
2018-06-25T03:24:46.497Z,9.20
2018-06-25T03:25:46.459Z,9.50
2018-06-25T03:26:46.416Z,8.00
2018-06-25T03:27:46.369Z,8.60
2018-06-25T03:28:46.326Z,8.70
2018-06-25T03:29:46.285Z,8.00
2018-06-25T03:30:46.242Z,8.70
2018-06-25T03:31:46.200Z,9.40
2018-06-25T03:32:46.159Z,9.70
2018-06-25T03:33:46.115Z,7.70
2018-06-25T03:34:46.076Z,8.90
2018-06-25T03:35:46.036Z,7.60
2018-06-25T03:36:45.990Z,10.80
2018-06-25T03:37:45.944Z,8.10
2018-06-25T03:38:45.913Z,11.80
2018-06-25T03:39:45.859Z,10.60
2018-06-25T03:40:45.817Z,8.00
2018-06-25T03:41:45.776Z,9.00
2018-06-25T03:42:45.734Z,9.70
2018-06-25T03:43:45.691Z,8.50
2018-06-25T03:44:45.645Z,10.40
2018-06-25T03:45:45.603Z,9.30
2018-06-25T03:46:45.561Z,8.70
2018-06-25T03:47:45.525Z,8.60
2018-06-25T03:48:45.476Z,11.00
2018-06-25T03:49:45.436Z,9.70
2018-06-25T03:50:45.391Z,9.80
2018-06-25T03:51:45.352Z,11.20
2018-06-25T03:52:45.306Z,13.00
2018-06-25T03:53:45.264Z,11.80
2018-06-25T03:54:45.221Z,10.00
2018-06-25T03:55:45.178Z,8.40
2018-06-25T03:56:45.136Z,8.90
2018-06-25T03:57:45.094Z,10.50
2018-06-25T03:58:45.053Z,10.50
2018-06-25T03:59:45.011Z,10.70
2018-06-25T04:00:44.966Z,13.20
2018-06-25T04:01:44.924Z,10.60
2018-06-25T04:02:44.929Z,11.10
2018-06-25T04:03:44.838Z,10.50
2018-06-25T04:04:44.795Z,11.20
2018-06-25T04:05:44.754Z,12.20
2018-06-25T04:06:44.711Z,10.20
2018-06-25T04:07:44.671Z,9.60
2018-06-25T04:08:44.627Z,10.50
2018-06-25T04:09:44.586Z,11.30
2018-06-25T04:10:44.541Z,10.10
2018-06-25T04:11:44.500Z,10.90
2018-06-25T04:12:44.457Z,12.60
2018-06-25T04:13:44.424Z,10.40
2018-06-25T04:14:44.372Z,11.40
2018-06-25T04:15:44.329Z,14.80
2018-06-25T04:16:44.285Z,10.30
2018-06-25T04:17:44.244Z,13.00
2018-06-25T04:18:44.207Z,12.00
2018-06-25T04:19:44.160Z,13.00
2018-06-25T04:20:44.142Z,12.90
2018-06-25T04:21:44.074Z,9.90
2018-06-25T04:22:44.032Z,12.70
2018-06-25T04:23:44.015Z,13.80
2018-06-25T04:24:43.945Z,15.20
2018-06-25T04:25:43.946Z,11.40
2018-06-25T04:26:43.863Z,10.80
2018-06-25T04:27:43.822Z,11.70
2018-06-25T04:28:43.778Z,9.90
2018-06-25T04:29:43.739Z,11.10
2018-06-25T04:30:43.719Z,10.20
2018-06-25T04:31:43.651Z,12.40
2018-06-25T04:32:43.606Z,10.40
2018-06-25T04:33:43.565Z,12.20
2018-06-25T04:34:43.525Z,13.60
2018-06-25T04:35:43.478Z,9.80
2018-06-25T04:36:43.437Z,11.00
2018-06-25T04:37:43.393Z,12.20
2018-06-25T04:38:43.352Z,10.40
2018-06-25T04:39:43.345Z,12.60
2018-06-25T04:40:43.274Z,11.90
2018-06-25T04:41:43.232Z,11.70
2018-06-25T04:42:43.180Z,11.20
2018-06-25T04:43:43.139Z,11.80
2018-06-25T04:44:43.095Z,11.50
2018-06-25T04:45:43.056Z,11.70
2018-06-25T04:46:43.014Z,10.30
2018-06-25T04:47:42.968Z,11.40
2018-06-25T04:48:42.926Z,11.40
2018-06-25T04:49:42.892Z,13.30
2018-06-25T04:50:42.846Z,10.70
2018-06-25T04:51:42.811Z,11.20
2018-06-25T04:52:42.756Z,12.80
2018-06-25T04:53:42.715Z,12.20
2018-06-25T04:54:42.672Z,12.70
2018-06-25T04:55:42.628Z,12.90
2018-06-25T04:56:42.584Z,12.50
2018-06-25T04:57:42.543Z,11.30
2018-06-25T04:58:42.503Z,12.70
2018-06-25T04:59:42.457Z,11.10
2018-06-25T05:00:42.415Z,11.50
2018-06-25T05:01:42.374Z,12.20
2018-06-25T05:02:42.329Z,11.30
2018-06-25T05:03:42.290Z,10.70
2018-06-25T05:04:42.245Z,11.30
2018-06-25T05:05:42.203Z,12.20
2018-06-25T05:06:42.163Z,11.70
2018-06-25T05:07:42.131Z,12.00
2018-06-25T05:08:42.075Z,15.20
2018-06-25T05:09:42.036Z,13.40
2018-06-25T05:10:41.992Z,11.80
2018-06-25T05:11:41.956Z,13.00
2018-06-25T05:12:41.907Z,10.80
2018-06-25T05:13:41.865Z,10.70
2018-06-25T05:14:41.822Z,12.60
2018-06-25T05:15:41.782Z,11.10
2018-06-25T05:16:41.736Z,12.90
2018-06-25T05:17:41.693Z,14.60
2018-06-25T05:18:41.651Z,11.10
2018-06-25T05:19:41.612Z,12.30
2018-06-25T05:20:41.567Z,13.20
2018-06-25T05:21:41.525Z,12.00
2018-06-25T05:22:41.483Z,13.40
2018-06-25T05:23:41.485Z,11.80
2018-06-25T05:24:41.398Z,13.40
2018-06-25T05:25:41.354Z,12.30
2018-06-25T05:26:41.312Z,14.50
2018-06-25T05:27:41.268Z,14.60
2018-06-25T05:28:41.226Z,13.30
2018-06-25T05:29:41.185Z,12.00
2018-06-25T05:30:41.141Z,15.40
2018-06-25T05:31:41.101Z,12.80
2018-06-25T05:32:41.057Z,16.00
2018-06-25T05:33:41.019Z,14.40
2018-06-25T05:34:40.973Z,10.90
2018-06-25T05:35:40.930Z,13.40
2018-06-25T05:36:40.886Z,13.90
2018-06-25T05:37:40.847Z,11.30
2018-06-25T05:38:40.802Z,14.10
2018-06-25T05:39:40.813Z,11.70
2018-06-25T05:40:40.718Z,13.00
2018-06-25T05:41:40.679Z,15.10
2018-06-25T05:42:40.635Z,12.60
2018-06-25T05:43:40.594Z,15.30
2018-06-25T05:44:40.548Z,14.70
2018-06-25T05:45:40.507Z,14.40
2018-06-25T05:46:40.464Z,16.00
2018-06-25T05:47:40.422Z,18.00
2018-06-25T05:48:40.381Z,15.20
2018-06-25T05:49:40.337Z,13.40
2018-06-25T05:50:40.294Z,13.60
2018-06-25T05:51:40.257Z,13.30
2018-06-25T05:52:40.209Z,14.70
2018-06-25T05:53:40.170Z,12.10
2018-06-25T05:54:40.130Z,13.60
2018-06-25T05:55:40.095Z,15.00
2018-06-25T05:56:40.043Z,17.20
2018-06-25T05:57:40.002Z,14.00
2018-06-25T05:58:39.957Z,14.00
2018-06-25T05:59:39.915Z,16.30
2018-06-25T06:00:39.870Z,16.20
2018-06-25T06:01:39.831Z,16.20
2018-06-25T06:02:39.790Z,14.70
2018-06-25T06:03:39.750Z,15.50
2018-06-25T06:04:39.706Z,16.20
2018-06-25T06:05:39.663Z,17.10
2018-06-25T06:06:39.621Z,19.30
2018-06-25T06:07:39.576Z,18.80
2018-06-25T06:08:39.532Z,19.60
2018-06-25T06:09:39.489Z,20.00
2018-06-25T06:10:39.446Z,17.40
2018-06-25T06:11:39.407Z,16.00
2018-06-25T06:12:39.362Z,18.20
2018-06-25T06:13:39.324Z,17.20
2018-06-25T06:14:39.279Z,18.00
2018-06-25T06:15:39.239Z,21.70
2018-06-25T06:16:39.194Z,18.90
2018-06-25T06:17:39.151Z,18.30
2018-06-25T06:18:39.109Z,21.70
2018-06-25T06:19:39.068Z,20.00
2018-06-25T06:20:39.024Z,17.30
2018-06-25T06:21:38.988Z,16.70
2018-06-25T06:22:38.944Z,18.60
2018-06-25T06:23:38.906Z,20.60
2018-06-25T06:24:38.858Z,18.00
2018-06-25T06:25:38.818Z,18.80
2018-06-25T06:26:38.774Z,20.50
2018-06-25T06:27:38.731Z,19.10
2018-06-25T06:28:38.691Z,18.00
2018-06-25T06:29:38.644Z,25.80
2018-06-25T06:30:38.605Z,15.80
2018-06-25T06:31:38.561Z,19.40
2018-06-25T06:32:38.519Z,19.10
2018-06-25T06:33:38.479Z,22.00
2018-06-25T06:34:38.435Z,19.50
2018-06-25T06:35:38.394Z,19.80
2018-06-25T06:36:38.356Z,18.20
2018-06-25T06:37:38.311Z,22.90
2018-06-25T06:38:38.267Z,19.80
2018-06-25T06:39:38.227Z,19.70
2018-06-25T06:40:38.183Z,20.30
2018-06-25T06:41:38.142Z,18.20
2018-06-25T06:42:38.102Z,21.20
2018-06-25T06:43:38.056Z,22.00
2018-06-25T06:44:38.020Z,19.60
2018-06-25T06:45:37.972Z,19.00
2018-06-25T06:46:37.933Z,21.30
2018-06-25T06:47:37.891Z,20.60
2018-06-25T06:48:37.849Z,19.40
2018-06-25T06:49:37.808Z,18.00
2018-06-25T06:50:37.763Z,17.80
2018-06-25T06:51:37.723Z,18.50
2018-06-25T06:52:37.679Z,17.40
2018-06-25T06:53:37.641Z,17.20
2018-06-25T06:54:37.595Z,16.80
2018-06-25T06:55:37.554Z,16.50
2018-06-25T06:56:37.514Z,20.50
2018-06-25T06:57:37.472Z,21.20
2018-06-25T06:58:37.427Z,20.20
2018-06-25T06:59:37.387Z,21.30
2018-06-25T07:00:37.343Z,16.30
2018-06-25T07:01:37.302Z,19.10
2018-06-25T07:02:37.262Z,21.40
2018-06-25T07:03:37.220Z,19.40
2018-06-25T07:04:37.185Z,18.60
2018-06-25T07:05:37.140Z,19.50
2018-06-25T07:06:37.096Z,19.90
2018-06-25T07:07:37.060Z,18.20
2018-06-25T07:08:37.008Z,21.90
2018-06-25T07:09:36.967Z,19.90
2018-06-25T07:10:36.925Z,16.00
2018-06-25T07:11:36.884Z,17.30
2018-06-25T07:12:36.842Z,19.70
2018-06-25T07:13:36.803Z,15.60
2018-06-25T07:14:36.757Z,19.50
2018-06-25T07:15:36.724Z,17.50
2018-06-25T07:16:36.676Z,23.40
2018-06-25T07:17:36.633Z,17.70
2018-06-25T07:18:36.592Z,19.40
2018-06-25T07:19:36.551Z,16.50
2018-06-25T07:20:36.507Z,17.10
2018-06-25T07:21:36.469Z,14.80
2018-06-25T07:22:36.429Z,16.70
2018-06-25T07:23:36.385Z,14.80
2018-06-25T07:24:36.342Z,16.70
2018-06-25T07:25:36.300Z,16.10
2018-06-25T07:26:36.265Z,17.00
2018-06-25T07:27:36.281Z,16.30
2018-06-25T07:28:36.285Z,15.60
2018-06-25T07:29:36.159Z,15.30
2018-06-25T07:30:36.156Z,16.30
2018-06-25T07:31:36.163Z,16.90
2018-06-25T07:32:36.037Z,15.60
2018-06-25T07:33:36.033Z,13.90
2018-06-25T07:34:36.047Z,16.20
2018-06-25T07:35:35.914Z,17.00
2018-06-25T07:36:35.924Z,13.30
2018-06-25T07:37:35.923Z,16.20
2018-06-25T07:38:35.796Z,15.90
2018-06-25T07:39:35.793Z,16.50
2018-06-25T07:40:35.795Z,16.50
2018-06-25T07:41:35.706Z,17.50
2018-06-25T07:42:35.671Z,17.80
2018-06-25T07:43:35.629Z,13.50
2018-06-25T07:44:35.551Z,13.30
2018-06-25T07:45:35.550Z,14.30
2018-06-25T07:46:35.511Z,18.00
2018-06-25T07:47:35.429Z,14.00
2018-06-25T07:48:35.429Z,14.40
2018-06-25T07:49:35.321Z,14.90
2018-06-25T07:50:35.313Z,16.50
2018-06-25T07:51:35.311Z,15.40
2018-06-25T07:52:35.188Z,15.10
2018-06-25T07:53:35.262Z,15.00
2018-06-25T07:54:35.187Z,17.10
2018-06-25T07:55:35.068Z,12.50
2018-06-25T07:56:35.068Z,15.90
2018-06-25T07:57:35.069Z,17.10
2018-06-25T07:58:34.949Z,15.00
2018-06-25T07:59:34.949Z,17.40
2018-06-25T08:00:34.948Z,17.40
2018-06-25T08:01:34.827Z,11.90
2018-06-25T08:02:34.826Z,16.70
2018-06-25T08:03:34.885Z,16.50
2018-06-25T08:04:34.710Z,15.20
2018-06-25T08:05:34.705Z,13.70
2018-06-25T08:06:34.705Z,12.90
2018-06-25T08:07:34.586Z,13.60
2018-06-25T08:08:34.584Z,14.20
2018-06-25T08:09:34.586Z,16.20
2018-06-25T08:10:34.464Z,13.50
2018-06-25T08:11:34.465Z,12.30
2018-06-25T08:12:34.467Z,13.60
2018-06-25T08:13:34.350Z,15.10
2018-06-25T08:14:34.349Z,12.50
2018-06-25T08:15:34.343Z,14.00
2018-06-25T08:16:34.254Z,14.30
2018-06-25T08:17:34.227Z,13.00
2018-06-25T08:18:34.223Z,13.50
2018-06-25T08:19:34.104Z,10.00
2018-06-25T08:20:34.114Z,10.50
2018-06-25T08:21:34.104Z,11.40
2018-06-25T08:22:33.980Z,14.70
2018-06-25T08:23:33.982Z,11.10
2018-06-25T08:24:33.980Z,14.80
2018-06-25T08:25:33.865Z,13.10
2018-06-25T08:26:33.859Z,11.50
2018-06-25T08:27:33.863Z,12.20
2018-06-25T08:28:33.739Z,14.90
2018-06-25T08:29:33.741Z,12.60
2018-06-25T08:30:33.740Z,11.30
2018-06-25T08:31:33.620Z,11.10
2018-06-25T08:32:33.620Z,10.00
2018-06-25T08:33:33.577Z,12.20
2018-06-25T08:34:33.498Z,11.90
2018-06-25T08:35:33.505Z,14.70
2018-06-25T08:36:33.458Z,11.00
2018-06-25T08:37:33.377Z,13.00
2018-06-25T08:38:33.383Z,11.30
2018-06-25T08:39:33.335Z,9.50
2018-06-25T08:40:33.258Z,11.70
2018-06-25T08:41:33.256Z,9.00
2018-06-25T08:42:33.216Z,10.20
2018-06-25T08:43:33.137Z,9.60
2018-06-25T08:44:33.140Z,9.20
2018-06-25T08:45:33.017Z,11.30
2018-06-25T08:46:33.018Z,9.80
2018-06-25T08:47:33.015Z,13.00
2018-06-25T08:48:32.895Z,9.70
2018-06-25T08:49:32.895Z,13.10
2018-06-25T08:50:32.898Z,10.50
2018-06-25T08:51:32.785Z,11.20
2018-06-25T08:52:32.777Z,11.00
2018-06-25T08:53:32.775Z,10.20
2018-06-25T08:54:32.654Z,10.30
2018-06-25T08:55:32.655Z,11.20
2018-06-25T08:56:32.654Z,9.40
2018-06-25T08:57:32.610Z,8.20
2018-06-25T08:58:32.535Z,12.90
2018-06-25T08:59:32.533Z,9.70
2018-06-25T09:00:32.411Z,7.90
2018-06-25T09:01:32.410Z,8.60
2018-06-25T09:02:32.420Z,12.60
2018-06-25T09:03:32.294Z,9.70
2018-06-25T09:04:32.292Z,8.60
2018-06-25T09:05:32.295Z,10.10
2018-06-25T09:06:32.173Z,10.40
2018-06-25T09:07:32.171Z,11.00
2018-06-25T09:08:32.171Z,11.60
2018-06-25T09:09:32.142Z,9.90
2018-06-25T09:10:32.049Z,8.20
2018-06-25T09:11:32.049Z,7.30
2018-06-25T09:12:32.007Z,7.80
2018-06-25T09:13:31.933Z,10.70
2018-06-25T09:14:31.932Z,9.30
2018-06-25T09:15:32.090Z,8.60
2018-06-25T09:16:31.816Z,6.90
2018-06-25T09:17:31.810Z,10.40
2018-06-25T09:18:31.808Z,11.00
2018-06-25T09:19:31.692Z,7.60
2018-06-25T09:20:31.693Z,6.80
2018-06-25T09:21:31.690Z,8.30
2018-06-25T09:22:31.567Z,7.90
2018-06-25T09:23:31.568Z,7.70
2018-06-25T09:24:31.572Z,7.10
2018-06-25T09:25:31.498Z,7.00
2018-06-25T09:26:31.448Z,7.40
2018-06-25T09:27:31.446Z,8.50
2018-06-25T09:28:31.326Z,7.20
2018-06-25T09:29:31.326Z,9.30
2018-06-25T09:30:31.326Z,10.00
2018-06-25T09:31:31.205Z,8.10
2018-06-25T09:32:31.207Z,7.30
2018-06-25T09:33:31.207Z,8.90
2018-06-25T09:34:31.084Z,7.60
2018-06-25T09:35:31.084Z,7.30
2018-06-25T09:36:31.088Z,7.70
2018-06-25T09:37:30.964Z,6.10
2018-06-25T09:38:30.964Z,8.30
2018-06-25T09:39:30.965Z,6.90
2018-06-25T09:40:30.845Z,7.00
2018-06-25T09:41:31.039Z,9.30
2018-06-25T09:42:30.845Z,7.60
2018-06-25T09:43:30.722Z,7.50
2018-06-25T09:44:30.725Z,7.90
2018-06-25T09:45:30.725Z,5.80
2018-06-25T09:46:30.602Z,9.40
2018-06-25T09:47:30.603Z,7.40
2018-06-25T09:48:30.605Z,7.80
2018-06-25T09:49:30.480Z,8.80
2018-06-25T09:50:30.487Z,7.00
2018-06-25T09:51:30.481Z,7.50
2018-06-25T09:52:30.360Z,8.60
2018-06-25T09:53:30.361Z,8.20
2018-06-25T09:54:30.361Z,7.50
2018-06-25T09:55:30.242Z,7.10
2018-06-25T09:56:30.239Z,7.40
2018-06-25T09:57:30.243Z,8.10
2018-06-25T09:58:30.124Z,6.60
2018-06-25T09:59:30.120Z,6.90
2018-06-25T10:00:30.118Z,7.60
2018-06-25T10:01:30.004Z,8.20
2018-06-25T10:02:29.999Z,7.90
2018-06-25T10:03:30.014Z,7.00
2018-06-25T10:04:29.878Z,9.30
2018-06-25T10:05:29.877Z,6.60
2018-06-25T10:06:29.876Z,8.80
2018-06-25T10:07:29.834Z,6.40
2018-06-25T10:08:29.757Z,7.30
2018-06-25T10:09:29.756Z,9.10
2018-06-25T10:10:29.749Z,7.50
2018-06-25T10:11:29.635Z,6.30
2018-06-25T10:12:29.633Z,5.80
2018-06-25T10:13:29.636Z,8.00
2018-06-25T10:14:29.513Z,5.70
2018-06-25T10:15:29.518Z,5.30
2018-06-25T10:16:29.513Z,7.90
2018-06-25T10:17:29.395Z,5.90
2018-06-25T10:18:29.394Z,5.00
2018-06-25T10:19:29.398Z,7.60
2018-06-25T10:20:29.275Z,5.90
2018-06-25T10:21:29.278Z,5.80
2018-06-25T10:22:29.275Z,5.10
2018-06-25T10:23:29.154Z,8.00
2018-06-25T10:24:29.154Z,8.20
2018-06-25T10:25:29.151Z,6.30
2018-06-25T10:26:29.033Z,5.10
2018-06-25T10:27:29.037Z,5.20
2018-06-25T10:28:29.082Z,6.60
2018-06-25T10:29:28.910Z,6.10
2018-06-25T10:30:28.911Z,7.30
2018-06-25T10:31:28.910Z,7.90
2018-06-25T10:32:28.790Z,5.70
2018-06-25T10:33:28.788Z,5.70
2018-06-25T10:34:28.789Z,7.20
2018-06-25T10:35:28.672Z,5.70
2018-06-25T10:36:28.669Z,6.30
2018-06-25T10:37:28.672Z,5.80
2018-06-25T10:38:28.552Z,7.10
2018-06-25T10:39:28.551Z,6.70
2018-06-25T10:40:28.551Z,7.60
2018-06-25T10:41:28.433Z,6.70
2018-06-25T10:42:28.454Z,6.10
2018-06-25T10:43:28.430Z,8.10
2018-06-25T10:44:28.307Z,8.30
2018-06-25T10:45:28.309Z,8.20
2018-06-25T10:46:28.309Z,6.60
2018-06-25T10:47:28.188Z,7.50
2018-06-25T10:48:28.188Z,6.70
2018-06-25T10:49:28.187Z,7.30
2018-06-25T10:50:28.145Z,5.00
2018-06-25T10:51:28.066Z,6.70
2018-06-25T10:52:28.065Z,8.40
2018-06-25T10:53:28.064Z,7.60
2018-06-25T10:54:27.945Z,7.70
2018-06-25T10:55:27.945Z,7.60
2018-06-25T10:56:27.945Z,6.90
2018-06-25T10:57:27.823Z,6.40
2018-06-25T10:58:27.827Z,9.20
2018-06-25T10:59:27.869Z,5.30
2018-06-25T11:00:27.884Z,8.50
2018-06-25T11:01:27.703Z,7.50
2018-06-25T11:02:27.704Z,7.50
2018-06-25T11:03:27.582Z,6.30
2018-06-25T11:04:27.581Z,7.70
2018-06-25T11:05:27.582Z,8.50
2018-06-25T11:06:27.463Z,5.60
2018-06-25T11:07:27.794Z,9.60
2018-06-25T11:08:27.460Z,6.40
2018-06-25T11:09:27.341Z,7.40
2018-06-25T11:10:27.341Z,8.10
2018-06-25T11:11:27.339Z,8.60
2018-06-25T11:12:27.225Z,6.30
2018-06-25T11:13:27.234Z,7.80
2018-06-25T11:14:27.221Z,4.80
2018-06-25T11:15:27.102Z,8.10
2018-06-25T11:16:27.100Z,7.10
2018-06-25T11:17:27.102Z,7.30
2018-06-25T11:18:26.979Z,7.50
2018-06-25T11:19:26.978Z,6.60
2018-06-25T11:20:26.978Z,6.10
2018-06-25T11:21:26.857Z,5.50
2018-06-25T11:22:26.857Z,4.90
2018-06-25T11:23:26.863Z,5.70
2018-06-25T11:24:26.744Z,7.00
2018-06-25T11:25:26.738Z,7.10
2018-06-25T11:26:26.737Z,4.50
2018-06-25T11:27:26.721Z,6.20
2018-06-25T11:28:26.617Z,6.70
2018-06-25T11:29:26.616Z,5.40
2018-06-25T11:30:26.576Z,5.50
2018-06-25T11:31:26.495Z,4.80
2018-06-25T11:32:26.497Z,7.10
2018-06-25T11:33:26.497Z,6.10
2018-06-25T11:34:26.409Z,8.30
2018-06-25T11:35:26.377Z,6.10
2018-06-25T11:36:26.374Z,8.00
2018-06-25T11:37:26.253Z,4.50
2018-06-25T11:38:26.254Z,6.80
2018-06-25T11:39:26.254Z,5.80
2018-06-25T11:40:26.134Z,5.70
2018-06-25T11:41:26.134Z,7.70
2018-06-25T11:42:26.137Z,5.30
2018-06-25T11:43:26.016Z,7.20
2018-06-25T11:44:26.015Z,7.00
2018-06-25T11:45:26.013Z,4.50
2018-06-25T11:46:25.891Z,4.30
2018-06-25T11:47:25.893Z,4.50
2018-06-25T11:48:25.892Z,5.20
2018-06-25T11:49:25.779Z,5.50
2018-06-25T11:50:25.770Z,6.60
2018-06-25T11:51:25.773Z,5.40
2018-06-25T11:52:25.766Z,7.00
2018-06-25T11:53:25.649Z,5.40
2018-06-25T11:54:25.650Z,5.50
2018-06-25T11:55:25.652Z,8.10
2018-06-25T11:56:25.530Z,6.50
2018-06-25T11:57:25.535Z,5.40
2018-06-25T11:58:25.533Z,4.20
2018-06-25T11:59:25.407Z,5.10
2018-06-25T12:00:25.414Z,5.00
2018-06-25T12:01:25.409Z,4.10
2018-06-25T12:02:25.356Z,4.60
2018-06-25T12:03:25.367Z,3.80
2018-06-25T12:04:25.289Z,5.40
2018-06-25T12:05:25.172Z,6.10
2018-06-25T12:06:25.169Z,4.90
2018-06-25T12:07:25.166Z,6.10
2018-06-25T12:08:25.168Z,4.80
2018-06-25T12:09:25.050Z,7.10
2018-06-25T12:11:25.050Z,3.90
2018-06-25T12:12:24.960Z,5.40
2018-06-25T12:13:24.926Z,6.50
2018-06-25T12:14:24.929Z,4.20
2018-06-25T12:15:24.810Z,5.30
2018-06-25T12:16:24.804Z,4.60
2018-06-25T12:17:24.829Z,5.10
2018-06-25T12:18:24.762Z,5.90
2018-06-25T12:19:24.688Z,5.30
2018-06-25T12:20:24.682Z,5.10
2018-06-25T12:21:24.684Z,3.60
2018-06-25T12:22:24.564Z,4.70
2018-06-25T12:23:24.563Z,2.90
2018-06-25T12:24:24.562Z,4.70
2018-06-25T12:25:24.445Z,4.00
2018-06-25T12:26:24.445Z,4.50
2018-06-25T12:27:24.444Z,2.80
2018-06-25T12:28:24.323Z,3.20
2018-06-25T12:29:24.322Z,3.10
2018-06-25T12:30:24.324Z,3.30
2018-06-25T12:31:24.321Z,5.00
2018-06-25T12:32:24.201Z,3.50
2018-06-25T12:33:24.203Z,3.90
2018-06-25T12:34:24.202Z,3.80
2018-06-25T12:35:24.080Z,5.50
2018-06-25T12:36:24.081Z,6.90
2018-06-25T12:37:24.079Z,5.60
2018-06-25T12:38:24.076Z,4.60
2018-06-25T12:39:23.959Z,4.60
2018-06-25T12:40:23.959Z,3.50
2018-06-25T12:41:24.001Z,4.20
2018-06-25T12:42:23.838Z,3.90
2018-06-25T12:43:23.839Z,4.40
2018-06-25T12:45:23.722Z,5.30
2018-06-25T12:46:23.718Z,5.80
2018-06-25T12:47:23.720Z,5.60
2018-06-25T12:48:23.773Z,3.70
2018-06-25T12:49:23.599Z,4.50
2018-06-25T12:50:23.597Z,4.30
2018-06-25T12:51:23.601Z,5.00
2018-06-25T12:52:23.477Z,3.40
2018-06-25T12:53:23.480Z,4.90
2018-06-25T12:54:23.480Z,3.70
2018-06-25T12:55:23.487Z,4.30
2018-06-25T12:56:23.357Z,4.90
2018-06-25T12:57:23.358Z,4.50
2018-06-25T12:58:23.358Z,3.90
2018-06-25T12:59:23.234Z,3.90
2018-06-25T13:00:23.233Z,3.20
2018-06-25T13:02:23.113Z,3.20
2018-06-25T13:03:23.113Z,4.50
2018-06-25T13:04:23.112Z,3.80
2018-06-25T13:05:23.114Z,3.70
2018-06-25T13:06:22.993Z,3.50
2018-06-25T13:07:22.995Z,3.30
2018-06-25T13:08:22.993Z,4.10
2018-06-25T13:09:22.872Z,4.40
2018-06-25T13:10:22.886Z,3.30